sensor_id;sensor_type;location;lat;lon;timestamp;pressure;altitude;pressure_sealevel;temperature;humidity
35778;BME280;21899;42.662;23.316;2023-07-20T00:01:28;94115.56;;;23.48;74.58
35778;BME280;21899;42.662;23.316;2023-07-20T00:03:54;94121.66;;;23.58;74.97
35778;BME280;21899;42.662;23.316;2023-07-20T00:06:26;94124.97;;;23.62;73.80
35778;BME280;21899;42.662;23.316;2023-07-20T00:08:56;94125.50;;;23.66;74.21
35778;BME280;21899;42.662;23.316;2023-07-20T00:11:26;94120.53;;;23.64;70.47
35778;BME280;21899;42.662;23.316;2023-07-20T00:13:52;94118.09;;;23.52;69.55
35778;BME280;21899;42.662;23.316;2023-07-20T00:16:17;94122.69;;;23.46;69.58
35778;BME280;21899;42.662;23.316;2023-07-20T00:18:42;94122.91;;;23.42;69.46
35778;BME280;21899;42.662;23.316;2023-07-20T00:21:08;94133.81;;;23.42;70.15
35778;BME280;21899;42.662;23.316;2023-07-20T00:23:34;94125.84;;;23.39;70.38
35778;BME280;21899;42.662;23.316;2023-07-20T00:26:00;94131.84;;;23.43;71.20
35778;BME280;21899;42.662;23.316;2023-07-20T00:28:25;94136.56;;;23.42;69.45
35778;BME280;21899;42.662;23.316;2023-07-20T00:30:50;94119.34;;;23.36;70.93
35778;BME280;21899;42.662;23.316;2023-07-20T00:33:17;94127.72;;;23.33;69.30
35778;BME280;21899;42.662;23.316;2023-07-20T00:35:43;94126.38;;;23.43;68.94
35778;BME280;21899;42.662;23.316;2023-07-20T00:38:08;94132.41;;;23.61;67.71
35778;BME280;21899;42.662;23.316;2023-07-20T00:40:41;94129.38;;;23.59;66.68
35778;BME280;21899;42.662;23.316;2023-07-20T00:43:07;94124.69;;;23.60;66.65
35778;BME280;21899;42.662;23.316;2023-07-20T00:45:33;94119.22;;;23.60;66.10
35778;BME280;21899;42.662;23.316;2023-07-20T00:48:01;94111.31;;;23.62;67.06
35778;BME280;21899;42.662;23.316;2023-07-20T00:50:27;94120.31;;;23.68;67.53
35778;BME280;21899;42.662;23.316;2023-07-20T00:52:55;94116.53;;;23.65;68.62
35778;BME280;21899;42.662;23.316;2023-07-20T00:55:20;94117.16;;;23.55;69.84
35778;BME280;21899;42.662;23.316;2023-07-20T00:57:46;94101.91;;;23.34;70.32
35778;BME280;21899;42.662;23.316;2023-07-20T01:00:12;94104.06;;;23.30;70.63
35778;BME280;21899;42.662;23.316;2023-07-20T01:02:38;94101.91;;;23.34;71.24
35778;BME280;21899;42.662;23.316;2023-07-20T01:05:05;94113.50;;;23.29;71.77
35778;BME280;21899;42.662;23.316;2023-07-20T01:07:37;94091.16;;;23.15;72.57
35778;BME280;21899;42.662;23.316;2023-07-20T01:10:20;94106.78;;;23.15;72.70
35778;BME280;21899;42.662;23.316;2023-07-20T01:12:54;94118.75;;;23.03;73.15
35778;BME280;21899;42.662;23.316;2023-07-20T01:15:20;94103.78;;;22.98;73.94
35778;BME280;21899;42.662;23.316;2023-07-20T01:17:45;94116.56;;;22.92;76.15
35778;BME280;21899;42.662;23.316;2023-07-20T01:20:14;94115.22;;;22.73;77.60
35778;BME280;21899;42.662;23.316;2023-07-20T01:30:52;94113.19;;;22.21;87.52
35778;BME280;21899;42.662;23.316;2023-07-20T01:33:21;94115.03;;;22.15;88.50
35778;BME280;21899;42.662;23.316;2023-07-20T01:35:56;94113.53;;;22.14;89.32
35778;BME280;21899;42.662;23.316;2023-07-20T01:38:23;94114.47;;;22.11;88.10
35778;BME280;21899;42.662;23.316;2023-07-20T01:40:50;94124.66;;;22.02;89.72
35778;BME280;21899;42.662;23.316;2023-07-20T01:43:16;94122.44;;;21.91;90.54
35778;BME280;21899;42.662;23.316;2023-07-20T01:45:43;94114.16;;;21.85;91.87
35778;BME280;21899;42.662;23.316;2023-07-20T01:48:08;94102.22;;;21.83;91.99
35778;BME280;21899;42.662;23.316;2023-07-20T01:50:34;94097.06;;;21.76;92.42
35778;BME280;21899;42.662;23.316;2023-07-20T01:53:00;94114.91;;;21.86;93.00
35778;BME280;21899;42.662;23.316;2023-07-20T01:55:25;94111.50;;;21.76;93.30
35778;BME280;21899;42.662;23.316;2023-07-20T01:57:51;94100.81;;;21.55;94.26
35778;BME280;21899;42.662;23.316;2023-07-20T02:00:16;94112.56;;;21.61;94.21
35778;BME280;21899;42.662;23.316;2023-07-20T02:02:44;94107.91;;;21.52;94.22
35778;BME280;21899;42.662;23.316;2023-07-20T02:05:09;94109.88;;;21.52;94.87
35778;BME280;21899;42.662;23.316;2023-07-20T02:07:35;94105.25;;;21.43;95.47
35778;BME280;21899;42.662;23.316;2023-07-20T02:10:00;94105.41;;;21.40;95.79
35778;BME280;21899;42.662;23.316;2023-07-20T02:12:26;94093.34;;;21.32;95.86
35778;BME280;21899;42.662;23.316;2023-07-20T02:14:51;94086.06;;;21.38;95.79
35778;BME280;21899;42.662;23.316;2023-07-20T02:17:17;94102.38;;;21.38;96.11
35778;BME280;21899;42.662;23.316;2023-07-20T02:19:42;94101.06;;;21.33;96.83
35778;BME280;21899;42.662;23.316;2023-07-20T02:22:07;94099.69;;;21.29;96.97
35778;BME280;21899;42.662;23.316;2023-07-20T02:24:33;94108.00;;;21.34;96.86
35778;BME280;21899;42.662;23.316;2023-07-20T02:26:59;94102.38;;;21.38;96.69
35778;BME280;21899;42.662;23.316;2023-07-20T02:29:24;94096.34;;;21.34;97.09
35778;BME280;21899;42.662;23.316;2023-07-20T02:31:50;94101.78;;;21.34;96.89
35778;BME280;21899;42.662;23.316;2023-07-20T02:34:15;94087.91;;;21.32;97.19
35778;BME280;21899;42.662;23.316;2023-07-20T02:36:41;94093.75;;;21.39;97.23
35778;BME280;21899;42.662;23.316;2023-07-20T02:39:08;94084.28;;;21.26;97.76
35778;BME280;21899;42.662;23.316;2023-07-20T02:41:34;94079.44;;;21.30;97.66
35778;BME280;21899;42.662;23.316;2023-07-20T02:44:00;94075.38;;;21.25;98.29
35778;BME280;21899;42.662;23.316;2023-07-20T02:46:26;94079.75;;;21.23;98.28
35778;BME280;21899;42.662;23.316;2023-07-20T02:48:51;94076.16;;;21.17;99.02
35778;BME280;21899;42.662;23.316;2023-07-20T02:51:17;94077.91;;;21.29;99.46
35778;BME280;21899;42.662;23.316;2023-07-20T02:53:43;94072.47;;;21.29;99.49
35778;BME280;21899;42.662;23.316;2023-07-20T02:56:08;94073.06;;;21.33;99.16
35778;BME280;21899;42.662;23.316;2023-07-20T02:58:34;94073.38;;;21.35;99.09
35778;BME280;21899;42.662;23.316;2023-07-20T03:01:03;94079.28;;;21.33;98.78
35778;BME280;21899;42.662;23.316;2023-07-20T03:03:29;94073.06;;;21.33;98.27
35778;BME280;21899;42.662;23.316;2023-07-20T03:05:54;94075.81;;;21.24;97.89
35778;BME280;21899;42.662;23.316;2023-07-20T03:08:21;94070.66;;;21.26;97.61
35778;BME280;21899;42.662;23.316;2023-07-20T03:10:47;94077.00;;;21.32;98.17
35778;BME280;21899;42.662;23.316;2023-07-20T03:13:12;94074.00;;;21.30;98.71
35778;BME280;21899;42.662;23.316;2023-07-20T03:15:39;94079.56;;;21.35;97.60
35778;BME280;21899;42.662;23.316;2023-07-20T03:18:05;94085.28;;;21.37;97.62
35778;BME280;21899;42.662;23.316;2023-07-20T03:20:31;94086.34;;;21.40;97.82
35778;BME280;21899;42.662;23.316;2023-07-20T03:22:56;94091.19;;;21.36;97.89
35778;BME280;21899;42.662;23.316;2023-07-20T03:25:22;94094.06;;;21.41;96.60
35778;BME280;21899;42.662;23.316;2023-07-20T03:27:47;94094.78;;;21.51;94.75
35778;BME280;21899;42.662;23.316;2023-07-20T03:30:13;94099.28;;;21.54;93.38
35778;BME280;21899;42.662;23.316;2023-07-20T03:32:38;94103.47;;;21.64;92.26
35778;BME280;21899;42.662;23.316;2023-07-20T03:35:04;94094.84;;;21.65;91.70
35778;BME280;21899;42.662;23.316;2023-07-20T03:37:30;94086.78;;;21.80;90.85
35778;BME280;21899;42.662;23.316;2023-07-20T03:39:55;94099.13;;;21.90;90.64
35778;BME280;21899;42.662;23.316;2023-07-20T03:42:20;94098.22;;;21.93;89.89
35778;BME280;21899;42.662;23.316;2023-07-20T03:44:46;94102.56;;;22.00;89.96
35778;BME280;21899;42.662;23.316;2023-07-20T03:47:11;94085.13;;;22.06;89.61
35778;BME280;21899;42.662;23.316;2023-07-20T03:49:37;94097.75;;;22.18;89.38
35778;BME280;21899;42.662;23.316;2023-07-20T03:52:03;94102.09;;;22.25;88.21
35778;BME280;21899;42.662;23.316;2023-07-20T03:54:29;94107.44;;;22.43;88.06
35778;BME280;21899;42.662;23.316;2023-07-20T03:56:54;94099.91;;;22.52;86.29
35778;BME280;21899;42.662;23.316;2023-07-20T03:59:20;94098.06;;;22.58;86.37
35778;BME280;21899;42.662;23.316;2023-07-20T04:01:45;94104.97;;;22.68;84.61
35778;BME280;21899;42.662;23.316;2023-07-20T04:04:11;94109.13;;;22.78;83.86
35778;BME280;21899;42.662;23.316;2023-07-20T04:06:37;94108.19;;;22.81;83.69
35778;BME280;21899;42.662;23.316;2023-07-20T04:09:03;94093.03;;;22.95;82.53
35778;BME280;21899;42.662;23.316;2023-07-20T04:11:30;94090.97;;;23.04;82.15
35778;BME280;21899;42.662;23.316;2023-07-20T04:13:55;94093.97;;;23.06;83.36
35778;BME280;21899;42.662;23.316;2023-07-20T04:16:21;94088.16;;;22.99;83.53
35778;BME280;21899;42.662;23.316;2023-07-20T04:18:47;94083.81;;;22.92;84.06
35778;BME280;21899;42.662;23.316;2023-07-20T04:21:12;94079.75;;;22.88;85.63
35778;BME280;21899;42.662;23.316;2023-07-20T04:23:37;94090.97;;;22.75;86.12
35778;BME280;21899;42.662;23.316;2023-07-20T04:26:03;94081.72;;;22.73;86.03
35778;BME280;21899;42.662;23.316;2023-07-20T04:28:28;94073.06;;;22.74;85.29
35778;BME280;21899;42.662;23.316;2023-07-20T04:30:53;94079.66;;;22.68;86.70
35778;BME280;21899;42.662;23.316;2023-07-20T04:33:19;94084.06;;;22.65;88.51
35778;BME280;21899;42.662;23.316;2023-07-20T04:35:54;94082.84;;;22.66;88.65
35778;BME280;21899;42.662;23.316;2023-07-20T04:38:20;94073.75;;;22.84;88.93
35778;BME280;21899;42.662;23.316;2023-07-20T04:40:47;94068.00;;;22.96;87.55
35778;BME280;21899;42.662;23.316;2023-07-20T04:43:17;94063.66;;;23.04;87.29
35778;BME280;21899;42.662;23.316;2023-07-20T04:45:42;94077.78;;;23.47;85.50
35778;BME280;21899;42.662;23.316;2023-07-20T04:48:13;94081.94;;;23.77;81.87
35778;BME280;21899;42.662;23.316;2023-07-20T04:50:42;94078.31;;;24.20;79.80
35778;BME280;21899;42.662;23.316;2023-07-20T04:53:09;94073.31;;;24.59;76.26
35778;BME280;21899;42.662;23.316;2023-07-20T04:55:35;94078.59;;;24.88;74.94
35778;BME280;21899;42.662;23.316;2023-07-20T04:58:03;94072.88;;;25.11;72.42
35778;BME280;21899;42.662;23.316;2023-07-20T05:00:29;94071.69;;;25.43;69.85
35778;BME280;21899;42.662;23.316;2023-07-20T05:02:55;94082.34;;;25.73;66.79
35778;BME280;21899;42.662;23.316;2023-07-20T05:05:21;94081.63;;;26.20;64.79
35778;BME280;21899;42.662;23.316;2023-07-20T05:07:47;94078.66;;;26.18;62.04
35778;BME280;21899;42.662;23.316;2023-07-20T05:10:12;94077.66;;;26.21;62.30
35778;BME280;21899;42.662;23.316;2023-07-20T05:12:38;94079.50;;;26.51;61.17
35778;BME280;21899;42.662;23.316;2023-07-20T05:15:04;94091.78;;;26.56;59.83
35778;BME280;21899;42.662;23.316;2023-07-20T05:17:29;94088.53;;;26.63;58.90
35778;BME280;21899;42.662;23.316;2023-07-20T05:19:55;94078.66;;;26.93;57.58
35778;BME280;21899;42.662;23.316;2023-07-20T05:22:20;94086.91;;;27.04;56.56
35778;BME280;21899;42.662;23.316;2023-07-20T05:24:45;94090.75;;;27.29;54.53
35778;BME280;21899;42.662;23.316;2023-07-20T05:27:11;94089.69;;;27.26;55.13
35778;BME280;21899;42.662;23.316;2023-07-20T05:29:37;94082.97;;;27.44;54.78
35778;BME280;21899;42.662;23.316;2023-07-20T05:32:03;94102.97;;;27.55;52.64
35778;BME280;21899;42.662;23.316;2023-07-20T05:34:28;94088.19;;;27.20;52.62
35778;BME280;21899;42.662;23.316;2023-07-20T05:37:09;94095.94;;;27.10;53.45
35778;BME280;21899;42.662;23.316;2023-07-20T05:39:34;94096.50;;;27.36;53.53
35778;BME280;21899;42.662;23.316;2023-07-20T05:42:00;94093.22;;;27.76;52.19
35778;BME280;21899;42.662;23.316;2023-07-20T05:44:25;94104.94;;;28.15;49.87
35778;BME280;21899;42.662;23.316;2023-07-20T05:46:50;94113.91;;;28.22;48.96
35778;BME280;21899;42.662;23.316;2023-07-20T05:49:16;94105.44;;;28.08;47.83
35778;BME280;21899;42.662;23.316;2023-07-20T05:51:41;94105.19;;;28.12;47.62
35778;BME280;21899;42.662;23.316;2023-07-20T05:54:06;94112.44;;;28.26;47.24
35778;BME280;21899;42.662;23.316;2023-07-20T05:56:32;94106.72;;;28.13;48.12
35778;BME280;21899;42.662;23.316;2023-07-20T05:58:57;94112.72;;;27.95;47.47
35778;BME280;21899;42.662;23.316;2023-07-20T06:01:22;94109.50;;;27.96;47.32
35778;BME280;21899;42.662;23.316;2023-07-20T06:03:48;94099.84;;;28.42;47.60
35778;BME280;21899;42.662;23.316;2023-07-20T06:06:13;94106.19;;;28.94;46.58
35778;BME280;21899;42.662;23.316;2023-07-20T06:08:40;94099.75;;;29.21;43.92
35778;BME280;21899;42.662;23.316;2023-07-20T06:11:05;94098.69;;;29.35;43.13
35778;BME280;21899;42.662;23.316;2023-07-20T06:13:30;94099.25;;;29.58;43.52
35778;BME280;21899;42.662;23.316;2023-07-20T06:15:56;94106.50;;;29.90;42.86
35778;BME280;21899;42.662;23.316;2023-07-20T06:18:22;94092.75;;;30.14;42.88
35778;BME280;21899;42.662;23.316;2023-07-20T06:20:49;94096.31;;;30.09;44.28
35778;BME280;21899;42.662;23.316;2023-07-20T06:23:15;94088.47;;;29.89;44.96
35778;BME280;21899;42.662;23.316;2023-07-20T06:25:41;94087.78;;;29.48;46.51
35778;BME280;21899;42.662;23.316;2023-07-20T06:28:06;94073.84;;;29.35;46.18
35778;BME280;21899;42.662;23.316;2023-07-20T06:30:33;94071.25;;;29.13;47.10
35778;BME280;21899;42.662;23.316;2023-07-20T06:32:59;94078.53;;;29.05;46.96
35778;BME280;21899;42.662;23.316;2023-07-20T06:35:25;94078.31;;;29.03;48.42
35778;BME280;21899;42.662;23.316;2023-07-20T06:37:51;94074.59;;;28.95;47.79
35778;BME280;21899;42.662;23.316;2023-07-20T06:40:17;94079.94;;;28.82;48.80
35778;BME280;21899;42.662;23.316;2023-07-20T06:42:43;94071.41;;;28.23;49.81
35778;BME280;21899;42.662;23.316;2023-07-20T06:45:08;94072.41;;;28.20;50.28
35778;BME280;21899;42.662;23.316;2023-07-20T06:47:34;94082.59;;;28.52;49.36
35778;BME280;21899;42.662;23.316;2023-07-20T06:49:59;94074.06;;;28.45;48.51
35778;BME280;21899;42.662;23.316;2023-07-20T06:52:25;94076.81;;;28.45;48.15
35778;BME280;21899;42.662;23.316;2023-07-20T06:54:50;94078.56;;;28.48;48.12
35778;BME280;21899;42.662;23.316;2023-07-20T06:57:16;94078.81;;;28.50;48.77
35778;BME280;21899;42.662;23.316;2023-07-20T06:59:41;94092.50;;;28.77;48.08
35778;BME280;21899;42.662;23.316;2023-07-20T07:02:07;94105.06;;;28.56;47.34
35778;BME280;21899;42.662;23.316;2023-07-20T07:04:33;94109.38;;;28.41;47.35
35778;BME280;21899;42.662;23.316;2023-07-20T07:06:59;94108.56;;;28.62;47.80
35778;BME280;21899;42.662;23.316;2023-07-20T07:09:25;94115.56;;;28.69;47.83
35778;BME280;21899;42.662;23.316;2023-07-20T07:11:50;94115.59;;;28.47;47.61
35778;BME280;21899;42.662;23.316;2023-07-20T07:14:15;94116.38;;;28.42;47.63
35778;BME280;21899;42.662;23.316;2023-07-20T07:16:41;94129.16;;;28.39;47.31
35778;BME280;21899;42.662;23.316;2023-07-20T07:19:06;94133.94;;;28.28;48.70
35778;BME280;21899;42.662;23.316;2023-07-20T07:21:32;94146.44;;;28.29;49.09
35778;BME280;21899;42.662;23.316;2023-07-20T07:23:57;94148.75;;;28.02;50.27
35778;BME280;21899;42.662;23.316;2023-07-20T07:26:25;94152.47;;;27.77;50.77
35778;BME280;21899;42.662;23.316;2023-07-20T07:28:50;94157.22;;;27.49;52.57
35778;BME280;21899;42.662;23.316;2023-07-20T07:31:15;94159.44;;;27.29;54.51
35778;BME280;21899;42.662;23.316;2023-07-20T07:33:41;94156.63;;;27.12;56.06
35778;BME280;21899;42.662;23.316;2023-07-20T07:36:06;94139.66;;;27.19;56.74
35778;BME280;21899;42.662;23.316;2023-07-20T07:38:32;94138.47;;;27.64;55.36
35778;BME280;21899;42.662;23.316;2023-07-20T07:40:58;94137.47;;;27.40;54.43
35778;BME280;21899;42.662;23.316;2023-07-20T07:43:23;94127.25;;;27.40;55.40
35778;BME280;21899;42.662;23.316;2023-07-20T07:45:49;94139.94;;;27.32;56.19
35778;BME280;21899;42.662;23.316;2023-07-20T07:48:14;94139.47;;;27.28;56.63
35778;BME280;21899;42.662;23.316;2023-07-20T07:50:40;94118.50;;;27.42;57.07
35778;BME280;21899;42.662;23.316;2023-07-20T07:53:05;94108.47;;;27.33;56.63
35778;BME280;21899;42.662;23.316;2023-07-20T07:55:31;94094.97;;;27.41;57.40
35778;BME280;21899;42.662;23.316;2023-07-20T07:57:56;94101.97;;;27.64;55.64
35778;BME280;21899;42.662;23.316;2023-07-20T08:00:22;94106.25;;;27.65;55.51
35778;BME280;21899;42.662;23.316;2023-07-20T08:02:49;94092.25;;;27.68;55.36
35778;BME280;21899;42.662;23.316;2023-07-20T08:05:15;94098.22;;;27.67;55.90
35778;BME280;21899;42.662;23.316;2023-07-20T08:07:40;94123.25;;;27.63;56.10
35778;BME280;21899;42.662;23.316;2023-07-20T08:10:06;94134.22;;;27.74;55.44
35778;BME280;21899;42.662;23.316;2023-07-20T08:12:32;94160.50;;;27.86;56.25
35778;BME280;21899;42.662;23.316;2023-07-20T08:14:58;94159.97;;;27.82;56.68
35778;BME280;21899;42.662;23.316;2023-07-20T08:17:23;94157.75;;;27.86;56.20
35778;BME280;21899;42.662;23.316;2023-07-20T08:19:49;94161.75;;;27.63;57.49
35778;BME280;21899;42.662;23.316;2023-07-20T08:22:14;94156.47;;;27.54;59.12
35778;BME280;21899;42.662;23.316;2023-07-20T08:24:41;94160.91;;;27.19;58.53
35778;BME280;21899;42.662;23.316;2023-07-20T08:27:07;94168.06;;;27.00;57.44
35778;BME280;21899;42.662;23.316;2023-07-20T08:29:34;94161.34;;;27.01;57.46
35778;BME280;21899;42.662;23.316;2023-07-20T08:31:59;94169.09;;;27.02;55.19
35778;BME280;21899;42.662;23.316;2023-07-20T08:34:24;94157.53;;;26.81;53.41
35778;BME280;21899;42.662;23.316;2023-07-20T08:36:50;94164.47;;;26.71;53.43
35778;BME280;21899;42.662;23.316;2023-07-20T08:39:15;94167.28;;;26.88;54.20
35778;BME280;21899;42.662;23.316;2023-07-20T08:41:42;94166.38;;;27.13;54.29
35778;BME280;21899;42.662;23.316;2023-07-20T08:44:08;94181.88;;;27.16;49.12
35778;BME280;21899;42.662;23.316;2023-07-20T08:46:35;94167.38;;;27.10;49.58
35778;BME280;21899;42.662;23.316;2023-07-20T08:49:00;94177.88;;;27.17;49.51
35778;BME280;21899;42.662;23.316;2023-07-20T08:51:28;94164.09;;;27.01;48.81
35778;BME280;21899;42.662;23.316;2023-07-20T08:53:54;94147.34;;;26.93;50.02
35778;BME280;21899;42.662;23.316;2023-07-20T08:56:20;94156.81;;;26.98;49.96
35778;BME280;21899;42.662;23.316;2023-07-20T08:58:46;94151.16;;;27.12;51.61
35778;BME280;21899;42.662;23.316;2023-07-20T09:01:13;94145.97;;;27.47;48.76
35778;BME280;21899;42.662;23.316;2023-07-20T09:03:39;94134.22;;;27.52;48.01
35778;BME280;21899;42.662;23.316;2023-07-20T09:06:05;94133.00;;;27.53;46.82
35778;BME280;21899;42.662;23.316;2023-07-20T09:08:31;94140.47;;;27.47;47.54
35778;BME280;21899;42.662;23.316;2023-07-20T09:10:56;94133.22;;;27.33;47.37
35778;BME280;21899;42.662;23.316;2023-07-20T09:13:22;94141.22;;;27.48;47.94
35778;BME280;21899;42.662;23.316;2023-07-20T09:15:55;94135.50;;;27.57;48.90
35778;BME280;21899;42.662;23.316;2023-07-20T09:18:29;94132.47;;;27.60;47.50
35778;BME280;21899;42.662;23.316;2023-07-20T09:21:05;94120.47;;;27.74;46.80
35778;BME280;21899;42.662;23.316;2023-07-20T09:23:34;94135.72;;;27.59;47.05
35778;BME280;21899;42.662;23.316;2023-07-20T09:26:04;94128.97;;;27.54;48.10
35778;BME280;21899;42.662;23.316;2023-07-20T09:28:41;94123.22;;;27.58;48.30
35778;BME280;21899;42.662;23.316;2023-07-20T09:31:18;94118.22;;;27.78;47.65
35778;BME280;21899;42.662;23.316;2023-07-20T09:33:45;94118.97;;;28.01;46.55
35778;BME280;21899;42.662;23.316;2023-07-20T09:36:10;94119.44;;;28.22;45.21
35778;BME280;21899;42.662;23.316;2023-07-20T09:38:37;94122.63;;;28.42;43.78
35778;BME280;21899;42.662;23.316;2023-07-20T09:41:05;94117.59;;;28.46;42.64
35778;BME280;21899;42.662;23.316;2023-07-20T09:43:30;94113.38;;;28.40;42.71
35778;BME280;21899;42.662;23.316;2023-07-20T09:45:57;94103.41;;;28.26;44.02
35778;BME280;21899;42.662;23.316;2023-07-20T09:48:24;94115.84;;;28.49;43.79
35778;BME280;21899;42.662;23.316;2023-07-20T09:50:51;94109.22;;;28.85;43.63
35778;BME280;21899;42.662;23.316;2023-07-20T09:53:17;94102.78;;;29.17;42.06
35778;BME280;21899;42.662;23.316;2023-07-20T09:55:44;94090.97;;;29.58;41.51
35778;BME280;21899;42.662;23.316;2023-07-20T09:58:10;94082.84;;;30.00;39.71
35778;BME280;21899;42.662;23.316;2023-07-20T10:00:37;94083.03;;;30.08;38.66
35778;BME280;21899;42.662;23.316;2023-07-20T10:03:04;94084.00;;;30.10;38.37
35778;BME280;21899;42.662;23.316;2023-07-20T10:05:33;94084.00;;;29.86;37.57
35778;BME280;21899;42.662;23.316;2023-07-20T10:08:03;94094.53;;;29.82;37.27
35778;BME280;21899;42.662;23.316;2023-07-20T10:10:31;94085.88;;;29.97;37.38
35778;BME280;21899;42.662;23.316;2023-07-20T10:12:57;94090.72;;;30.15;36.88
35778;BME280;21899;42.662;23.316;2023-07-20T10:15:28;94096.28;;;29.85;37.38
35778;BME280;21899;42.662;23.316;2023-07-20T10:18:20;94091.59;;;30.04;37.77
35778;BME280;21899;42.662;23.316;2023-07-20T10:20:50;94076.75;;;30.07;37.51
35778;BME280;21899;42.662;23.316;2023-07-20T10:23:17;94092.75;;;30.14;36.87
35778;BME280;21899;42.662;23.316;2023-07-20T10:25:42;94096.06;;;30.07;37.27
35778;BME280;21899;42.662;23.316;2023-07-20T10:28:10;94099.88;;;30.28;37.09
35778;BME280;21899;42.662;23.316;2023-07-20T10:30:36;94077.00;;;30.33;37.45
35778;BME280;21899;42.662;23.316;2023-07-20T10:33:03;94074.97;;;30.34;37.88
35778;BME280;21899;42.662;23.316;2023-07-20T10:35:29;94065.59;;;30.42;37.70
35778;BME280;21899;42.662;23.316;2023-07-20T10:38:04;94070.38;;;30.42;37.23
35778;BME280;21899;42.662;23.316;2023-07-20T10:40:33;94082.34;;;30.69;36.79
35778;BME280;21899;42.662;23.316;2023-07-20T10:43:01;94073.81;;;30.67;36.40
35778;BME280;21899;42.662;23.316;2023-07-20T10:45:40;94063.38;;;30.59;37.23
35778;BME280;21899;42.662;23.316;2023-07-20T10:48:13;94016.69;;;30.37;37.80
35778;BME280;21899;42.662;23.316;2023-07-20T10:50:40;93991.84;;;30.37;37.96
35778;BME280;21899;42.662;23.316;2023-07-20T10:53:23;94033.28;;;30.37;38.12
35778;BME280;21899;42.662;23.316;2023-07-20T10:56:06;94048.28;;;30.42;38.67
35778;BME280;21899;42.662;23.316;2023-07-20T10:58:31;94042.28;;;30.38;39.26
35778;BME280;21899;42.662;23.316;2023-07-20T11:00:58;94033.91;;;30.68;37.71
35778;BME280;21899;42.662;23.316;2023-07-20T11:03:30;94023.03;;;30.70;37.66
35778;BME280;21899;42.662;23.316;2023-07-20T11:05:57;94011.66;;;30.97;37.67
35778;BME280;21899;42.662;23.316;2023-07-20T11:08:42;94015.31;;;30.87;37.87
35778;BME280;21899;42.662;23.316;2023-07-20T11:11:27;94011.88;;;30.81;38.22
35778;BME280;21899;42.662;23.316;2023-07-20T11:19:00;94019.13;;;30.84;37.53
35778;BME280;21899;42.662;23.316;2023-07-20T11:21:26;94014.31;;;30.66;38.03
35778;BME280;21899;42.662;23.316;2023-07-20T11:23:53;94010.94;;;30.73;37.95
35778;BME280;21899;42.662;23.316;2023-07-20T11:26:18;94010.16;;;30.78;38.15
35778;BME280;21899;42.662;23.316;2023-07-20T11:28:51;94002.34;;;30.76;38.50
35778;BME280;21899;42.662;23.316;2023-07-20T11:31:18;93994.31;;;30.59;39.19
35778;BME280;21899;42.662;23.316;2023-07-20T11:33:43;93995.50;;;30.83;38.81
35778;BME280;21899;42.662;23.316;2023-07-20T11:36:09;93983.72;;;30.82;39.30
35778;BME280;21899;42.662;23.316;2023-07-20T11:38:34;93979.44;;;31.00;39.59
35778;BME280;21899;42.662;23.316;2023-07-20T11:41:00;93989.00;;;31.30;38.95
35778;BME280;21899;42.662;23.316;2023-07-20T11:43:25;93987.38;;;31.22;38.63
35778;BME280;21899;42.662;23.316;2023-07-20T11:45:51;93974.97;;;31.28;39.65
35778;BME280;21899;42.662;23.316;2023-07-20T11:48:17;93970.91;;;31.29;38.45
35778;BME280;21899;42.662;23.316;2023-07-20T11:50:42;93983.19;;;31.34;39.04
35778;BME280;21899;42.662;23.316;2023-07-20T11:53:08;93976.97;;;31.28;38.74
35778;BME280;21899;42.662;23.316;2023-07-20T11:55:34;93965.28;;;31.22;38.31
35778;BME280;21899;42.662;23.316;2023-07-20T11:58:06;93969.28;;;31.21;37.99
35778;BME280;21899;42.662;23.316;2023-07-20T12:00:33;93959.56;;;31.33;37.89
35778;BME280;21899;42.662;23.316;2023-07-20T12:02:59;93961.53;;;31.19;38.68
35778;BME280;21899;42.662;23.316;2023-07-20T12:05:25;93954.63;;;31.26;38.65
35778;BME280;21899;42.662;23.316;2023-07-20T12:07:51;93957.06;;;31.16;38.12
35778;BME280;21899;42.662;23.316;2023-07-20T12:10:24;93950.78;;;31.16;37.51
35778;BME280;21899;42.662;23.316;2023-07-20T12:12:49;93944.00;;;31.30;37.70
35778;BME280;21899;42.662;23.316;2023-07-20T12:15:21;93953.41;;;31.40;37.19
35778;BME280;21899;42.662;23.316;2023-07-20T12:17:54;93939.16;;;31.49;36.91
35778;BME280;21899;42.662;23.316;2023-07-20T12:20:38;93947.50;;;31.75;35.46
35778;BME280;21899;42.662;23.316;2023-07-20T12:23:12;93944.97;;;31.90;35.88
35778;BME280;21899;42.662;23.316;2023-07-20T12:25:42;93937.69;;;31.74;33.63
35778;BME280;21899;42.662;23.316;2023-07-20T12:28:15;93942.81;;;31.70;35.04
35778;BME280;21899;42.662;23.316;2023-07-20T12:30:41;93946.31;;;31.70;35.45
35778;BME280;21899;42.662;23.316;2023-07-20T12:33:07;93928.75;;;31.81;35.46
35778;BME280;21899;42.662;23.316;2023-07-20T12:35:32;93939.94;;;32.02;32.91
35778;BME280;21899;42.662;23.316;2023-07-20T12:37:58;93939.75;;;32.13;33.58
35778;BME280;21899;42.662;23.316;2023-07-20T12:40:24;93929.19;;;32.11;32.81
35778;BME280;21899;42.662;23.316;2023-07-20T12:42:49;93934.06;;;32.18;32.70
35778;BME280;21899;42.662;23.316;2023-07-20T12:45:15;93945.91;;;32.19;30.33
35778;BME280;21899;42.662;23.316;2023-07-20T12:47:41;93928.78;;;31.94;29.13
35778;BME280;21899;42.662;23.316;2023-07-20T12:50:08;93935.16;;;32.02;30.09
35778;BME280;21899;42.662;23.316;2023-07-20T12:52:38;93926.00;;;32.07;29.82
35778;BME280;21899;42.662;23.316;2023-07-20T12:55:04;93940.03;;;32.22;30.17
35778;BME280;21899;42.662;23.316;2023-07-20T12:57:30;93921.19;;;32.21;30.74
35778;BME280;21899;42.662;23.316;2023-07-20T12:59:55;93932.50;;;32.10;30.88
35778;BME280;21899;42.662;23.316;2023-07-20T13:02:20;93925.16;;;31.99;31.64